Time;durP1;ratioP1;P1;durP2;ratioP2;P2;SDS_P1;SDS_P2;PMS_P1;PMS_P2;Temp;Humidity;BMP_temperature;BMP_pressure;BME280_temperature;BME280_humidity;BME280_pressure;Samples;Min_cycle;Max_cycle;Signal;HPM_P1;HPM_P2
2020/07/01 00:00:28;;;;;;;3.7;1.8;;;;;;;18.31;76.94336;935.8056;;;;
2020/07/01 00:02:58;;;;;;;3.8;1.8;;;;;;;18.39;76.51563;935.7633;;;;
2020/07/01 00:05:23;;;;;;;10;2.3;;;;;;;18.35;76.68359;935.7553;;;;
2020/07/01 00:07:48;;;;;;;3.2;2;;;;;;;18.31;77.00293;935.7644;;;;
2020/07/01 00:10:13;;;;;;;2.9;1.6;;;;;;;18.29;76.96289;935.707;;;;
2020/07/01 00:12:40;;;;;;;5;1.6;;;;;;;18.09;77.60254;935.7478;;;;
2020/07/01 00:15:05;;;;;;;2.7;1.8;;;;;;;17.95;78.0293;935.699;;;;
2020/07/01 00:17:30;;;;;;;3.9;1.9;;;;;;;17.87;78.44531;935.7033;;;;
2020/07/01 00:19:56;;;;;;;3;1.8;;;;;;;17.7;78.98438;935.6326;;;;
2020/07/01 00:22:21;;;;;;;4.5;1.8;;;;;;;17.63;79.35449;935.6428;;;;
2020/07/01 00:24:48;;;;;;;5.4;2;;;;;;;17.53;79.77734;935.6125;;;;
2020/07/01 00:27:13;;;;;;;2.9;1.8;;;;;;;17.52;80.05273;935.6401;;;;
2020/07/01 00:29:40;;;;;;;3.2;1.8;;;;;;;17.46;80.32129;935.6035;;;;
2020/07/01 00:32:05;;;;;;;3.2;1.7;;;;;;;17.42;80.33789;935.6937;;;;
2020/07/01 00:34:32;;;;;;;3.4;2.1;;;;;;;17.44;80.3877;935.6949;;;;
2020/07/01 00:36:57;;;;;;;2.4;1.7;;;;;;;17.53;79.78906;935.635;;;;
2020/07/01 00:39:22;;;;;;;3.1;1.8;;;;;;;17.55;79.65332;935.6177;;;;
2020/07/01 00:41:47;;;;;;;2.4;1.8;;;;;;;17.61;79.32813;935.5825;;;;
2020/07/01 00:44:13;;;;;;;3.9;1.9;;;;;;;17.52;79.67188;935.5443;;;;
2020/07/01 00:46:38;;;;;;;2.9;1.8;;;;;;;17.44;80.05078;935.6401;;;;
2020/07/01 00:49:08;;;;;;;3.7;1.9;;;;;;;17.48;79.87207;935.5694;;;;
2020/07/01 00:51:33;;;;;;;3.7;1.9;;;;;;;17.4;80.09082;935.5739;;;;
2020/07/01 00:54:01;;;;;;;4.9;2;;;;;;;17.47;80.03418;935.481;;;;
2020/07/01 00:56:28;;;;;;;2.3;1.9;;;;;;;17.48;79.53711;935.533;;;;
2020/07/01 00:58:53;;;;;;;2.9;1.7;;;;;;;17.15;80.85645;935.5442;;;;
2020/07/01 01:01:19;;;;;;;3.3;1.8;;;;;;;17.21;80.68066;935.456;;;;
2020/07/01 01:03:44;;;;;;;3;2.1;;;;;;;17.16;80.96289;935.3452;;;;
2020/07/01 01:06:10;;;;;;;3.3;2;;;;;;;17.14;81.06348;935.4422;;;;
2020/07/01 01:08:35;;;;;;;6;1.9;;;;;;;16.92;81.92676;935.3538;;;;
2020/07/01 01:11:00;;;;;;;3.4;2;;;;;;;16.7;83.18164;935.3369;;;;
2020/07/01 01:13:25;;;;;;;4.1;1.8;;;;;;;16.76;82.9043;935.351;;;;
2020/07/01 01:15:50;;;;;;;2.2;1.8;;;;;;;16.76;82.9043;935.4274;;;;
2020/07/01 01:18:16;;;;;;;4.8;2.2;;;;;;;16.79;82.84961;935.3954;;;;
2020/07/01 01:20:41;;;;;;;4.6;2.1;;;;;;;16.48;83.97461;935.3925;;;;
2020/07/01 01:23:07;;;;;;;4.3;2.1;;;;;;;16.46;84.22559;935.3672;;;;
2020/07/01 01:25:32;;;;;;;4.4;2.2;;;;;;;16.3;84.80762;935.3608;;;;
2020/07/01 01:27:57;;;;;;;5.1;2.3;;;;;;;16.23;85.34863;935.35;;;;
2020/07/01 01:30:26;;;;;;;3.7;2.3;;;;;;;16.23;85.3125;935.3525;;;;
2020/07/01 01:32:52;;;;;;;3.8;2.2;;;;;;;16.31;85.09863;935.322;;;;
2020/07/01 01:35:17;;;;;;;3.4;2;;;;;;;16.46;84.4209;935.3552;;;;
2020/07/01 01:37:43;;;;;;;11.4;3.2;;;;;;;16.67;83.4668;935.3085;;;;
2020/07/01 01:40:09;;;;;;;5.2;1.9;;;;;;;16.79;82.79395;935.3376;;;;
2020/07/01 01:42:35;;;;;;;3.7;2.1;;;;;;;16.97;81.95996;935.2626;;;;
2020/07/01 01:45:00;;;;;;;5.2;2.2;;;;;;;17.08;81.17969;935.2786;;;;
2020/07/01 01:47:27;;;;;;;5;2.2;;;;;;;17.16;80.66113;935.2495;;;;
2020/07/01 01:49:52;;;;;;;2.9;1.9;;;;;;;17.14;80.54004;935.2339;;;;
2020/07/01 01:52:18;;;;;;;3.9;1.8;;;;;;;17.06;80.97754;935.2244;;;;
2020/07/01 01:54:43;;;;;;;3.1;1.8;;;;;;;17.03;80.84473;935.2159;;;;
2020/07/01 01:57:09;;;;;;;4.6;2.2;;;;;;;17.09;80.625;935.2316;;;;
2020/07/01 01:59:34;;;;;;;3.7;1.9;;;;;;;16.9;81.18066;935.2191;;;;
2020/07/01 02:02:01;;;;;;;3.2;1.9;;;;;;;16.78;81.76074;935.2774;;;;
2020/07/01 02:04:26;;;;;;;3.7;2.1;;;;;;;16.55;82.74805;935.245;;;;
2020/07/01 02:06:53;;;;;;;3.4;2.2;;;;;;;16.41;83.47656;935.2576;;;;
2020/07/01 02:09:18;;;;;;;4.8;2.2;;;;;;;16.52;83.1709;935.2166;;;;
2020/07/01 02:11:44;;;;;;;3.7;2.3;;;;;;;16.6;82.9082;935.2891;;;;
2020/07/01 02:14:09;;;;;;;4.4;2.2;;;;;;;16.69;82.16113;935.3;;;;
2020/07/01 02:16:37;;;;;;;4.7;2;;;;;;;16.75;81.99805;935.2451;;;;
2020/07/01 02:19:02;;;;;;;3.9;2.3;;;;;;;16.74;82.01953;935.2581;;;;
2020/07/01 02:21:27;;;;;;;3.6;1.9;;;;;;;16.71;82.16504;935.241;;;;
2020/07/01 02:23:52;;;;;;;2.6;2;;;;;;;16.6;82.55957;935.253;;;;
2020/07/01 02:26:18;;;;;;;2.5;1.9;;;;;;;16.67;82.33008;935.29;;;;
2020/07/01 02:28:43;;;;;;;4.4;2.1;;;;;;;16.75;81.77734;935.2981;;;;
2020/07/01 02:31:11;;;;;;;3.9;2.1;;;;;;;16.76;81.63086;935.2883;;;;
2020/07/01 02:33:36;;;;;;;4.1;2;;;;;;;16.69;81.83691;935.3121;;;;
2020/07/01 02:36:06;;;;;;;4.8;2.3;;;;;;;16.38;83.02734;935.288;;;;
2020/07/01 02:38:31;;;;;;;6.3;2.6;;;;;;;16.28;83.80859;935.329;;;;
2020/07/01 02:40:57;;;;;;;3.7;2.4;;;;;;;16.31;83.7334;935.3317;;;;
2020/07/01 02:43:22;;;;;;;13;2.8;;;;;;;16.3;83.8584;935.3158;;;;
2020/07/01 02:45:47;;;;;;;8.3;2.8;;;;;;;16.36;83.51074;935.2843;;;;
2020/07/01 02:48:14;;;;;;;4.5;2.2;;;;;;;16.22;84.15332;935.3903;;;;
2020/07/01 02:50:39;;;;;;;4;2.2;;;;;;;16.01;85.30469;935.3233;;;;
2020/07/01 02:53:04;;;;;;;3.5;1.9;;;;;;;16.08;85.22656;935.3635;;;;
2020/07/01 02:55:30;;;;;;;5.9;2.4;;;;;;;16.24;84.5752;935.3787;;;;
2020/07/01 02:57:55;;;;;;;10.6;3.1;;;;;;;16.3;84.07813;935.3495;;;;
2020/07/01 03:00:23;;;;;;;8;3;;;;;;;16.28;84.27148;935.3772;;;;
2020/07/01 03:02:49;;;;;;;6.3;2.8;;;;;;;16.43;83.62793;935.3566;;;;
2020/07/01 03:05:15;;;;;;;6.4;2.7;;;;;;;16.53;82.94141;935.3176;;;;
2020/07/01 03:07:41;;;;;;;4.3;2.2;;;;;;;16.51;82.87988;935.3092;;;;
2020/07/01 03:10:06;;;;;;;4.8;2.3;;;;;;;16.5;82.70313;935.34;;;;
2020/07/01 03:12:31;;;;;;;7.1;2.7;;;;;;;16.41;83.3584;935.3003;;;;
2020/07/01 03:14:59;;;;;;;4;2.2;;;;;;;16.49;82.93457;935.3377;;;;
2020/07/01 03:17:27;;;;;;;3.6;2.1;;;;;;;16.45;82.79688;935.3056;;;;
2020/07/01 03:19:52;;;;;;;3.5;2.1;;;;;;;16.39;83.13574;935.3047;;;;
2020/07/01 03:22:18;;;;;;;3.3;2.1;;;;;;;16.36;83.25781;935.2858;;;;
2020/07/01 03:24:43;;;;;;;3.5;2.2;;;;;;;16.34;83.25195;935.3279;;;;
2020/07/01 03:27:10;;;;;;;3.8;2.2;;;;;;;16.2;83.9668;935.3823;;;;
2020/07/01 03:29:35;;;;;;;6.3;2.3;;;;;;;16.25;83.96387;935.34;;;;
2020/07/01 03:32:01;;;;;;;3.7;1.9;;;;;;;16.36;83.56836;935.3052;;;;
2020/07/01 03:34:28;;;;;;;4.8;2.1;;;;;;;16.33;83.61914;935.3146;;;;
2020/07/01 03:36:55;;;;;;;4;2.2;;;;;;;16.3;83.89355;935.3022;;;;
2020/07/01 03:39:20;;;;;;;3.4;2.4;;;;;;;16.33;83.71191;935.2938;;;;
2020/07/01 03:41:46;;;;;;;6.9;2.2;;;;;;;16.34;83.87695;935.2822;;;;
2020/07/01 03:44:11;;;;;;;8.7;2.4;;;;;;;16.42;83.84668;935.2682;;;;
2020/07/01 03:46:36;;;;;;;4.9;2.2;;;;;;;16.31;84.01074;935.2385;;;;
2020/07/01 03:49:06;;;;;;;8.8;2.7;;;;;;;16.42;83.58008;935.3162;;;;
2020/07/01 03:51:34;;;;;;;4.5;2.6;;;;;;;16.4;83.4707;935.3649;;;;
2020/07/01 03:53:59;;;;;;;4.5;2.5;;;;;;;16.39;83.49219;935.3103;;;;
2020/07/01 03:56:26;;;;;;;9.2;2.6;;;;;;;16.41;83.54395;935.2722;;;;
2020/07/01 03:58:51;;;;;;;7.9;2.3;;;;;;;16.43;83.43359;935.3074;;;;
2020/07/01 04:02:32;;;;;;;4.7;2.1;;;;;;;16.26;84.47656;935.3156;;;;
2020/07/01 04:04:57;;;;;;;4.4;2.5;;;;;;;16.45;83.5957;935.3538;;;;
2020/07/01 04:07:22;;;;;;;4.8;2.6;;;;;;;16.54;83.05859;935.377;;;;
2020/07/01 04:09:51;;;;;;;6.8;2.7;;;;;;;16.45;83.50488;935.34;;;;
2020/07/01 04:12:19;;;;;;;7.2;2.6;;;;;;;16.61;83.06055;935.3484;;;;
2020/07/01 04:14:44;;;;;;;4.6;2.3;;;;;;;16.65;82.66211;935.3978;;;;
2020/07/01 04:17:09;;;;;;;5.1;2.3;;;;;;;16.7;82.5918;935.418;;;;
2020/07/01 04:19:35;;;;;;;11;3.2;;;;;;;16.76;82.23145;935.3928;;;;
2020/07/01 04:22:04;;;;;;;8.6;2.8;;;;;;;16.67;82.70215;935.3502;;;;
2020/07/01 04:24:29;;;;;;;5;2.4;;;;;;;16.69;82.5332;935.3933;;;;
2020/07/01 04:26:55;;;;;;;8.1;2.9;;;;;;;16.75;82.47266;935.3945;;;;
2020/07/01 04:29:20;;;;;;;5.2;2.4;;;;;;;16.61;82.84082;935.2978;;;;
2020/07/01 04:31:47;;;;;;;5.6;2.2;;;;;;;16.69;82.70508;935.3403;;;;
2020/07/01 04:34:12;;;;;;;5;2.4;;;;;;;16.73;82.70215;935.288;;;;
2020/07/01 04:36:40;;;;;;;9.5;2.5;;;;;;;16.71;82.94043;935.3665;;;;
2020/07/01 04:39:05;;;;;;;7.9;2.6;;;;;;;16.79;82.63184;935.3206;;;;
2020/07/01 04:41:30;;;;;;;7.2;2.6;;;;;;;16.8;82.4248;935.3736;;;;
2020/07/01 04:43:57;;;;;;;9.2;2.7;;;;;;;16.84;82.4668;935.3514;;;;
2020/07/01 04:46:22;;;;;;;7.9;2.7;;;;;;;16.84;82.06055;935.3658;;;;
2020/07/01 04:48:51;;;;;;;7.1;2.8;;;;;;;16.81;82.28613;935.3654;;;;
2020/07/01 04:51:16;;;;;;;7.7;2.1;;;;;;;16.79;82.43457;935.3842;;;;
2020/07/01 04:53:41;;;;;;;3.5;2.1;;;;;;;16.93;82.04297;935.3127;;;;
2020/07/01 04:56:06;;;;;;;8;2.9;;;;;;;16.88;82.34766;935.2684;;;;
2020/07/01 04:58:34;;;;;;;6.7;2.4;;;;;;;17.07;81.88477;935.2634;;;;
2020/07/01 05:00:59;;;;;;;9.7;2.6;;;;;;;17.28;81.21582;935.2916;;;;
2020/07/01 05:03:24;;;;;;;8.1;2.7;;;;;;;17.32;80.77051;935.298;;;;
2020/07/01 05:05:50;;;;;;;13.2;3.3;;;;;;;17.37;80.99902;935.2776;;;;
2020/07/01 05:08:16;;;;;;;10.6;2.6;;;;;;;17.96;79.84277;935.2897;;;;
2020/07/01 05:10:41;;;;;;;8.5;2.2;;;;;;;19.29;73.86523;935.2463;;;;
2020/07/01 05:13:10;;;;;;;8.8;2;;;;;;;20.71;68.10742;935.2477;;;;
2020/07/01 05:15:37;;;;;;;6.7;2;;;;;;;20.77;67.2168;935.1873;;;;
2020/07/01 05:18:02;;;;;;;6;2.2;;;;;;;20.28;68.74219;935.2355;;;;
2020/07/01 05:20:27;;;;;;;12.9;2.4;;;;;;;19.81;70.23145;935.2245;;;;
2020/07/01 05:22:52;;;;;;;10.5;2.3;;;;;;;19.55;72.56738;935.2048;;;;
2020/07/01 05:25:17;;;;;;;9;2.5;;;;;;;20.13;69.68555;935.2216;;;;
2020/07/01 05:27:45;;;;;;;11.4;2.3;;;;;;;20.31;69.58789;935.1836;;;;
2020/07/01 05:30:11;;;;;;;15.1;2.8;;;;;;;20.19;69.8125;935.1976;;;;
2020/07/01 05:32:36;;;;;;;7.7;2.1;;;;;;;20.11;70.12695;935.1462;;;;
2020/07/01 05:35:01;;;;;;;7.9;2.3;;;;;;;20.1;70.45313;935.1923;;;;
2020/07/01 05:37:29;;;;;;;4.8;1.9;;;;;;;20.21;71.2998;935.1937;;;;
2020/07/01 05:39:54;;;;;;;13;2.5;;;;;;;20.13;70.39941;935.168;;;;
2020/07/01 05:42:22;;;;;;;12.1;2.6;;;;;;;19.98;71.38965;935.1322;;;;
2020/07/01 05:44:47;;;;;;;9.8;2.2;;;;;;;20.05;71.43652;935.1358;;;;
2020/07/01 05:47:12;;;;;;;8.9;2.1;;;;;;;20.13;70.58594;935.1412;;;;
2020/07/01 05:49:38;;;;;;;7.8;2.1;;;;;;;20.17;70.21875;935.1555;;;;
2020/07/01 05:52:03;;;;;;;7.3;2.1;;;;;;;20.3;69.91113;935.1525;;;;
2020/07/01 05:54:28;;;;;;;6.3;1.7;;;;;;;21.43;66.38086;935.1133;;;;
2020/07/01 05:56:55;;;;;;;2.9;1.5;;;;;;;22.7;61.53516;935.0564;;;;
2020/07/01 05:59:20;;;;;;;5;1.5;;;;;;;23.94;58.46973;935.06;;;;
2020/07/01 06:01:48;;;;;;;8.8;1.7;;;;;;;25.18;54.14648;935.052;;;;
2020/07/01 06:04:13;;;;;;;7.3;1.6;;;;;;;26.64;50.47363;935.017;;;;
2020/07/01 06:06:39;;;;;;;12.6;2.1;;;;;;;28.1;46.71777;935.0131;;;;
2020/07/01 06:09:04;;;;;;;5.5;1.4;;;;;;;28.36;45.15234;934.9839;;;;
2020/07/01 06:11:29;;;;;;;5.1;1.5;;;;;;;28.66;43.37305;934.9953;;;;
2020/07/01 06:13:54;;;;;;;10.9;2;;;;;;;28.52;45.97559;935.0231;;;;
2020/07/01 06:16:22;;;;;;;4.7;1.6;;;;;;;27.65;46.23145;934.9883;;;;
2020/07/01 06:18:47;;;;;;;4;1.4;;;;;;;27.56;46.55469;934.9581;;;;
2020/07/01 06:21:12;;;;;;;8.8;2.1;;;;;;;28.72;43.50977;934.9283;;;;
2020/07/01 06:23:37;;;;;;;8.5;1.9;;;;;;;29.71;42.80664;934.9847;;;;
2020/07/01 06:26:04;;;;;;;5.5;1.4;;;;;;;30.07;41.83887;934.9261;;;;
2020/07/01 06:28:29;;;;;;;5.8;1.3;;;;;;;29.37;43.57324;934.9529;;;;
2020/07/01 06:30:56;;;;;;;7.8;2;;;;;;;30.27;40.60352;934.8858;;;;
2020/07/01 06:33:21;;;;;;;6.8;2;;;;;;;30.98;39.68652;934.9069;;;;
2020/07/01 06:35:49;;;;;;;3.9;1.5;;;;;;;30.02;40.28223;934.9679;;;;
2020/07/01 06:38:14;;;;;;;5.9;1.4;;;;;;;31.35;38.68945;934.9229;;;;
2020/07/01 06:40:40;;;;;;;5.4;1.4;;;;;;;31.71;38.44434;934.8981;;;;
2020/07/01 06:43:05;;;;;;;6.2;1.5;;;;;;;32.77;35.6416;934.9128;;;;
2020/07/01 06:45:32;;;;;;;4;1.2;;;;;;;32.34;35.94336;934.8773;;;;
2020/07/01 06:47:57;;;;;;;7.4;1.7;;;;;;;32.82;35.06934;934.8703;;;;
2020/07/01 06:50:23;;;;;;;2.5;1.3;;;;;;;32.59;35.8916;934.8105;;;;
2020/07/01 06:52:48;;;;;;;3.7;1.3;;;;;;;33.23;34.15234;934.8089;;;;
2020/07/01 06:55:15;;;;;;;5.6;1.4;;;;;;;33.12;34.75586;934.7809;;;;
2020/07/01 06:57:41;;;;;;;3.2;1.4;;;;;;;32.38;38.38184;934.7531;;;;
2020/07/01 07:00:09;;;;;;;6;1.2;;;;;;;32.63;35.68945;934.7736;;;;
2020/07/01 07:02:33;;;;;;;4.1;1.2;;;;;;;31.6;40.61523;934.7672;;;;
2020/07/01 07:04:59;;;;;;;4.2;1.3;;;;;;;31.02;41.74707;934.796;;;;
2020/07/01 07:07:24;;;;;;;5.4;1.1;;;;;;;30.54;40.65137;934.7864;;;;
2020/07/01 07:09:50;;;;;;;4.9;1.5;;;;;;;31.43;43.13574;934.7996;;;;
2020/07/01 07:12:15;;;;;;;4.2;1.2;;;;;;;31.01;40.4668;934.7463;;;;
2020/07/01 07:14:40;;;;;;;3.2;1.2;;;;;;;30.46;40.9541;934.8102;;;;
2020/07/01 07:17:05;;;;;;;6.6;1.6;;;;;;;30.02;43.43262;934.8237;;;;
2020/07/01 07:19:30;;;;;;;5.9;1.5;;;;;;;29.35;45.94141;934.8898;;;;
2020/07/01 07:21:57;;;;;;;7.3;1.8;;;;;;;29.17;45.4834;934.8689;;;;
2020/07/01 07:24:22;;;;;;;10.8;2.4;;;;;;;29.22;44.7373;934.8149;;;;
2020/07/01 07:26:48;;;;;;;4;1.5;;;;;;;31.03;42.58496;934.7725;;;;
2020/07/01 07:29:13;;;;;;;6.4;1.5;;;;;;;32.76;37.30957;934.8328;;;;
2020/07/01 07:31:39;;;;;;;2.1;1.3;;;;;;;34;34.29395;934.8276;;;;
2020/07/01 07:34:04;;;;;;;2.4;0.9;;;;;;;34.25;35.50391;934.8061;;;;
2020/07/01 07:36:29;;;;;;;1.8;1.1;;;;;;;33.99;32.71582;934.7939;;;;
2020/07/01 07:38:54;;;;;;;1.8;1;;;;;;;33.9;33.93652;934.8024;;;;
2020/07/01 07:41:21;;;;;;;4.6;1.2;;;;;;;33.18;34.30371;934.8017;;;;
2020/07/01 07:43:46;;;;;;;2.9;1.3;;;;;;;33.07;36.10938;934.7271;;;;
2020/07/01 07:46:13;;;;;;;2.6;1.2;;;;;;;33.1;35.34277;934.7766;;;;
2020/07/01 07:48:38;;;;;;;1.6;1;;;;;;;32.76;38.29395;934.7509;;;;
2020/07/01 07:51:03;;;;;;;4.4;1.2;;;;;;;31.95;44.07324;934.7388;;;;
2020/07/01 07:53:28;;;;;;;3;1.3;;;;;;;33.29;40.33301;934.6648;;;;
2020/07/01 07:55:53;;;;;;;6.1;1.2;;;;;;;34.62;35.20801;934.6356;;;;
2020/07/01 07:58:18;;;;;;;2.7;1;;;;;;;34.24;37.67188;934.6668;;;;
2020/07/01 08:00:45;;;;;;;3.2;1.1;;;;;;;34.24;38.43066;934.6627;;;;
2020/07/01 08:03:11;;;;;;;3.3;1.2;;;;;;;34.94;36.69141;934.6459;;;;
2020/07/01 08:05:36;;;;;;;3.7;1.2;;;;;;;36.06;32.24805;934.6003;;;;
2020/07/01 08:08:03;;;;;;;8.5;1.6;;;;;;;36.03;34.04785;934.5483;;;;
2020/07/01 08:10:28;;;;;;;5.6;1.4;;;;;;;36.71;35.46582;934.5422;;;;
2020/07/01 08:12:53;;;;;;;4.6;1.2;;;;;;;36.78;34.41699;934.5589;;;;
2020/07/01 08:15:18;;;;;;;4.1;1.3;;;;;;;36.28;35.31152;934.4904;;;;
2020/07/01 08:17:47;;;;;;;4.4;1.2;;;;;;;37.14;33.2334;934.5596;;;;
2020/07/01 08:20:12;;;;;;;4.3;1.2;;;;;;;37.34;33.30859;934.5367;;;;
2020/07/01 08:22:38;;;;;;;5.1;1.1;;;;;;;37.56;31.41895;934.5175;;;;
2020/07/01 08:25:03;;;;;;;2.2;1;;;;;;;36.4;34.65527;934.4423;;;;
2020/07/01 08:27:28;;;;;;;2.6;1.2;;;;;;;36.35;35.74121;934.4511;;;;
2020/07/01 08:29:53;;;;;;;2.5;0.9;;;;;;;36.98;31.98535;934.4473;;;;
2020/07/01 08:32:18;;;;;;;2.1;1;;;;;;;38.04;30.94238;934.4565;;;;
2020/07/01 08:34:46;;;;;;;2.1;1;;;;;;;38.12;30.61914;934.4333;;;;
2020/07/01 08:37:11;;;;;;;1.7;1;;;;;;;38.71;30.30566;934.3588;;;;
2020/07/01 08:39:38;;;;;;;6.1;1;;;;;;;38.12;30.16992;934.3641;;;;
2020/07/01 08:42:03;;;;;;;2.6;1;;;;;;;37.13;32.6748;934.3353;;;;
2020/07/01 08:44:28;;;;;;;1.7;1;;;;;;;37.8;31.6543;934.3543;;;;
2020/07/01 08:46:54;;;;;;;3;1;;;;;;;37.98;31.98242;934.346;;;;
2020/07/01 08:49:21;;;;;;;5.6;1.3;;;;;;;37.87;32.19336;934.3134;;;;
2020/07/01 08:54:42;;;;;;;2.7;1;;;;;;;37.76;29.22363;934.272;;;;
2020/07/01 08:57:07;;;;;;;2.8;0.9;;;;;;;37.73;33.89453;934.3091;;;;
2020/07/01 08:59:34;;;;;;;2.6;0.9;;;;;;;36.96;31.79004;934.2556;;;;
2020/07/01 09:01:59;;;;;;;3.7;0.8;;;;;;;36.65;33.26953;934.223;;;;
2020/07/01 09:04:27;;;;;;;1.4;0.8;;;;;;;37.26;32.74512;934.2017;;;;
2020/07/01 09:06:52;;;;;;;3.3;1.1;;;;;;;37.18;33.07813;934.1264;;;;
2020/07/01 09:09:19;;;;;;;5.4;1.1;;;;;;;37.07;32.25781;934.1487;;;;
2020/07/01 09:11:44;;;;;;;2.6;0.9;;;;;;;37.02;33.40625;934.1027;;;;
2020/07/01 09:14:10;;;;;;;3.1;1;;;;;;;36.52;34.76172;934.0976;;;;
2020/07/01 09:16:35;;;;;;;2.3;0.8;;;;;;;35.91;34.61914;934.024;;;;
2020/07/01 09:19:00;;;;;;;2.6;0.9;;;;;;;35.93;35.01855;934.0751;;;;
2020/07/01 09:21:26;;;;;;;3.7;0.9;;;;;;;35.86;34.17871;934.0853;;;;
2020/07/01 09:23:50;;;;;;;3.4;0.9;;;;;;;35.71;33.38281;934.0586;;;;
2020/07/01 09:26:16;;;;;;;1.2;0.7;;;;;;;35.55;34.85645;934.0397;;;;
2020/07/01 09:28:41;;;;;;;2.5;0.9;;;;;;;35.54;35.55664;934.019;;;;
2020/07/01 09:31:06;;;;;;;2.6;1;;;;;;;35.21;36.12305;933.9772;;;;
2020/07/01 09:33:31;;;;;;;4;1;;;;;;;34.5;41.22363;933.9624;;;;
2020/07/01 09:35:56;;;;;;;2.1;1;;;;;;;34.43;38.14453;933.9069;;;;
2020/07/01 09:38:22;;;;;;;3.5;1.2;;;;;;;34.01;37.72559;933.8533;;;;
2020/07/01 09:40:48;;;;;;;3.1;0.9;;;;;;;34.19;36.84863;933.8244;;;;
2020/07/01 09:43:13;;;;;;;5;0.9;;;;;;;34.31;37.40039;933.7502;;;;
2020/07/01 09:45:41;;;;;;;1.7;1;;;;;;;34.08;37.34473;933.6813;;;;
2020/07/01 09:48:06;;;;;;;3.9;1.1;;;;;;;33.29;41.05469;933.7264;;;;
2020/07/01 09:50:31;;;;;;;2;1;;;;;;;32.98;42.40723;933.675;;;;
2020/07/01 09:52:56;;;;;;;14.9;2.6;;;;;;;32.95;42.16406;933.7222;;;;
2020/07/01 09:55:23;;;;;;;3.6;1.1;;;;;;;33.05;42.64258;933.7076;;;;
2020/07/01 09:57:48;;;;;;;4.8;1.2;;;;;;;32.92;41.56152;933.6813;;;;
2020/07/01 10:00:15;;;;;;;3.3;1;;;;;;;32.93;40.92578;933.6612;;;;
2020/07/01 10:02:40;;;;;;;2.5;1;;;;;;;32.82;42.10449;933.6733;;;;
2020/07/01 10:05:08;;;;;;;1.7;0.9;;;;;;;32.74;41.67773;933.6024;;;;
2020/07/01 10:07:33;;;;;;;3.4;1.1;;;;;;;32.67;42.54688;933.5991;;;;
2020/07/01 10:09:59;;;;;;;7;1.4;;;;;;;32.51;42.55664;933.5756;;;;
2020/07/01 10:12:24;;;;;;;4.6;1.1;;;;;;;32.29;43.11133;933.509;;;;
2020/07/01 10:14:49;;;;;;;2.9;1.2;;;;;;;32.14;43.07227;933.476;;;;
2020/07/01 10:17:14;;;;;;;3.6;1.1;;;;;;;32.14;42.92871;933.3539;;;;
2020/07/01 10:19:40;;;;;;;2.8;1.1;;;;;;;31.95;44.16895;933.4389;;;;
2020/07/01 10:22:05;;;;;;;3.7;1.1;;;;;;;31.88;43.52734;933.4322;;;;
2020/07/01 10:24:32;;;;;;;3.3;1;;;;;;;32;44.83301;933.4714;;;;
2020/07/01 10:26:56;;;;;;;2.8;0.9;;;;;;;31.67;45.12305;933.4542;;;;
2020/07/01 10:29:23;;;;;;;5.1;1.1;;;;;;;31.74;44.25684;933.3419;;;;
2020/07/01 10:31:48;;;;;;;4.1;1.3;;;;;;;31.79;45.41113;933.3129;;;;
2020/07/01 10:34:13;;;;;;;5;1.1;;;;;;;32.01;46.54785;933.296;;;;
2020/07/01 10:36:40;;;;;;;4.9;1.1;;;;;;;32;44.80957;933.2958;;;;
2020/07/01 10:39:04;;;;;;;5.1;1.4;;;;;;;31.97;44.61328;933.2756;;;;
2020/07/01 10:41:29;;;;;;;3.7;1.4;;;;;;;32;45.06055;933.2748;;;;
2020/07/01 10:43:54;;;;;;;2.8;1.1;;;;;;;32.04;42.94238;933.2763;;;;
2020/07/01 10:46:19;;;;;;;2.9;1;;;;;;;31.92;42.05762;933.3399;;;;
2020/07/01 10:48:45;;;;;;;3.6;1.2;;;;;;;31.97;42.25391;933.2181;;;;
2020/07/01 10:51:10;;;;;;;5.7;1.3;;;;;;;31.54;43.91309;933.2023;;;;
2020/07/01 10:53:36;;;;;;;2.1;1.3;;;;;;;31.43;44.28711;933.2031;;;;
2020/07/01 10:56:01;;;;;;;3.4;1.3;;;;;;;31.5;43.85059;933.1981;;;;
2020/07/01 10:58:28;;;;;;;4.3;1;;;;;;;31.17;45.62402;933.0879;;;;
2020/07/01 11:00:53;;;;;;;5.1;1.2;;;;;;;31.4;45.50293;933.0834;;;;
2020/07/01 11:03:19;;;;;;;2.2;1.1;;;;;;;31.58;44.71875;933.1595;;;;
2020/07/01 11:05:44;;;;;;;6;1.1;;;;;;;31.88;43.83887;933.1206;;;;
2020/07/01 11:08:09;;;;;;;2.7;1.1;;;;;;;31.82;44.54004;933.2011;;;;
2020/07/01 11:10:36;;;;;;;4.6;1.2;;;;;;;31.88;45.76758;933.0999;;;;
2020/07/01 11:13:01;;;;;;;2.8;1.1;;;;;;;31.78;45.4707;933.0399;;;;
2020/07/01 11:15:27;;;;;;;1.8;1;;;;;;;31.88;43.40723;933.0636;;;;
2020/07/01 11:17:52;;;;;;;2.1;1.1;;;;;;;32.09;43.12793;933.0022;;;;
2020/07/01 11:20:18;;;;;;;3.9;1;;;;;;;32.03;42.11621;933.0422;;;;
2020/07/01 11:22:43;;;;;;;3.5;1.2;;;;;;;31.75;41.88672;933.0286;;;;
2020/07/01 11:25:10;;;;;;;2.4;1;;;;;;;31.7;44.14453;933.0055;;;;
2020/07/01 11:27:35;;;;;;;4.4;1.2;;;;;;;31.68;44.01074;932.9956;;;;
2020/07/01 11:30:00;;;;;;;2.3;1.2;;;;;;;31.82;44.81641;933.0277;;;;
2020/07/01 11:32:25;;;;;;;3.7;1.1;;;;;;;32.21;43.21191;932.9756;;;;
2020/07/01 11:34:51;;;;;;;1.8;0.9;;;;;;;32.65;43.03711;933.0411;;;;
2020/07/01 11:37:16;;;;;;;1.7;0.9;;;;;;;33.06;43.56836;933.0303;;;;
2020/07/01 11:39:42;;;;;;;1.1;1;;;;;;;33.38;40.69043;932.9383;;;;
2020/07/01 11:42:07;;;;;;;1.7;0.9;;;;;;;33.45;40.76758;932.892;;;;
2020/07/01 11:44:33;;;;;;;5.8;1;;;;;;;33.35;40.63965;932.8887;;;;
2020/07/01 11:46:58;;;;;;;2.2;0.9;;;;;;;33.16;41.11523;932.87;;;;
2020/07/01 11:49:25;;;;;;;2.4;0.9;;;;;;;33.03;40.98242;932.8851;;;;
2020/07/01 11:51:50;;;;;;;3.9;1;;;;;;;32.82;39.75195;932.8759;;;;
2020/07/01 11:54:15;;;;;;;2.2;0.9;;;;;;;32.71;39.40527;932.845;;;;
2020/07/01 11:56:41;;;;;;;2.5;1;;;;;;;32.54;40.19531;932.8734;;;;
2020/07/01 11:59:07;;;;;;;2.8;1;;;;;;;32.43;40.74902;932.8552;;;;
2020/07/01 12:01:32;;;;;;;3.2;0.9;;;;;;;32.41;40.99902;932.8453;;;;
2020/07/01 12:03:58;;;;;;;1.4;0.8;;;;;;;32.48;40.88477;932.8065;;;;
2020/07/01 12:06:23;;;;;;;2.4;0.9;;;;;;;32.72;41.71094;932.7859;;;;
2020/07/01 12:08:49;;;;;;;6;1.1;;;;;;;33.01;41.22168;932.7114;;;;
2020/07/01 12:11:14;;;;;;;6.2;1.3;;;;;;;33.25;40.66699;932.6531;;;;
2020/07/01 12:13:41;;;;;;;2.7;0.8;;;;;;;33.62;39.23145;932.6867;;;;
2020/07/01 12:16:06;;;;;;;2.8;1;;;;;;;33.82;37.90137;932.6169;;;;
2020/07/01 12:18:33;;;;;;;2.8;0.7;;;;;;;33.93;39.83691;932.6172;;;;
2020/07/01 12:20:58;;;;;;;3.5;0.9;;;;;;;33.98;38.22754;932.5338;;;;
2020/07/01 12:23:25;;;;;;;3.3;0.9;;;;;;;34.01;37.12305;932.552;;;;
2020/07/01 12:25:50;;;;;;;3.4;0.9;;;;;;;33.92;36.9834;932.584;;;;
2020/07/01 12:28:15;;;;;;;1.2;0.8;;;;;;;33.63;38.25781;932.6489;;;;
2020/07/01 12:30:41;;;;;;;1.8;1;;;;;;;33.24;39.65625;932.6442;;;;
2020/07/01 12:33:06;;;;;;;2.4;0.9;;;;;;;32.5;41.58398;932.6813;;;;
2020/07/01 12:35:33;;;;;;;6;1.2;;;;;;;31.71;42.14551;932.7238;;;;
2020/07/01 12:37:58;;;;;;;4.5;1.1;;;;;;;30.93;46.49707;932.7294;;;;
2020/07/01 12:40:25;;;;;;;3.5;1.1;;;;;;;30.24;50.85547;932.6755;;;;
2020/07/01 12:42:50;;;;;;;8.1;0.9;;;;;;;29.07;55.24805;932.716;;;;
2020/07/01 12:45:19;;;;;;;6.2;1.3;;;;;;;28.06;57.84473;932.9484;;;;
2020/07/01 12:47:45;;;;;;;2.6;1.5;;;;;;;27.38;62.05273;932.9965;;;;
2020/07/01 12:50:12;;;;;;;4.2;1.1;;;;;;;27.1;60.30566;932.9348;;;;
2020/07/01 12:52:37;;;;;;;5.1;1.5;;;;;;;26.45;62.7998;932.9311;;;;
2020/07/01 12:55:02;;;;;;;10.1;1.6;;;;;;;26.8;61.60449;932.8563;;;;
2020/07/01 12:57:27;;;;;;;3;1.3;;;;;;;26.38;61.6416;932.8398;;;;
2020/07/01 12:59:52;;;;;;;2.6;1.3;;;;;;;26.15;60.97168;932.8209;;;;
2020/07/01 13:02:17;;;;;;;2.2;1.1;;;;;;;26.16;58.66602;932.8514;;;;
2020/07/01 13:04:43;;;;;;;4.4;1.2;;;;;;;25.9;58.9502;932.9411;;;;
2020/07/01 13:07:08;;;;;;;2.6;1.3;;;;;;;25.86;62.63379;933.1262;;;;
2020/07/01 13:09:33;;;;;;;3.4;1.1;;;;;;;25.76;64.91309;933.2369;;;;
2020/07/01 13:11:59;;;;;;;2.6;1.3;;;;;;;25.69;64.54883;933.2658;;;;
2020/07/01 13:14:24;;;;;;;3.6;1.4;;;;;;;25.65;66.77637;933.2906;;;;
2020/07/01 13:16:49;;;;;;;5.7;1.7;;;;;;;25.46;68.49609;933.2565;;;;
2020/07/01 13:19:14;;;;;;;6.3;2.3;;;;;;;25.25;69.66797;933.3053;;;;
2020/07/01 13:21:41;;;;;;;7.5;2.5;;;;;;;25.05;69.2832;933.2954;;;;
2020/07/01 13:24:06;;;;;;;7.9;2.3;;;;;;;25.01;71.66016;933.4514;;;;
2020/07/01 13:26:32;;;;;;;8.7;1.9;;;;;;;24.9;72.10254;933.6859;;;;
2020/07/01 13:28:57;;;;;;;3.9;1.6;;;;;;;24.4;72.02246;933.8339;;;;
2020/07/01 13:31:25;;;;;;;6.4;2;;;;;;;23.94;75.5957;933.8458;;;;
2020/07/01 13:33:50;;;;;;;9.8;1.9;;;;;;;23.27;72.47363;933.8712;;;;
2020/07/01 13:36:15;;;;;;;3.7;1.7;;;;;;;22.99;73.14551;934.0674;;;;
2020/07/01 13:38:40;;;;;;;9.1;1.9;;;;;;;22.82;73.03516;933.983;;;;
2020/07/01 13:41:07;;;;;;;4.7;1.7;;;;;;;22.84;72.6748;933.8801;;;;
2020/07/01 13:43:32;;;;;;;7.6;2;;;;;;;23.1;75.25391;933.7902;;;;
2020/07/01 13:45:57;;;;;;;4.1;1.7;;;;;;;23.07;74.14453;933.8326;;;;
2020/07/01 13:48:23;;;;;;;7.6;1.9;;;;;;;23.14;73.43945;933.7477;;;;
2020/07/01 13:50:48;;;;;;;4.5;1.7;;;;;;;23.02;74.32324;933.7115;;;;
2020/07/01 13:53:14;;;;;;;4.7;1.4;;;;;;;23.03;74.6084;933.7542;;;;
2020/07/01 13:55:39;;;;;;;2.9;1.7;;;;;;;23.03;74.78516;933.7566;;;;
2020/07/01 13:58:06;;;;;;;5.4;1.9;;;;;;;22.91;76.75;933.9623;;;;
2020/07/01 14:00:31;;;;;;;6.6;2;;;;;;;22.83;77.16992;934.0936;;;;
2020/07/01 14:02:57;;;;;;;4.9;2;;;;;;;22.44;77.60742;934.3748;;;;
2020/07/01 14:05:22;;;;;;;5.9;2;;;;;;;22.2;78.4209;934.4322;;;;
2020/07/01 14:07:48;;;;;;;7.5;2.3;;;;;;;22.04;79.04883;934.3837;;;;
2020/07/01 14:10:13;;;;;;;7.5;2.4;;;;;;;21.99;78.92285;934.5864;;;;
2020/07/01 14:12:39;;;;;;;4.5;2.2;;;;;;;21.84;79.25879;934.7408;;;;
2020/07/01 14:15:06;;;;;;;6.4;2.4;;;;;;;21.55;79.45313;934.8186;;;;
2020/07/01 14:17:31;;;;;;;6.1;2;;;;;;;21.41;80.69141;935.0869;;;;
2020/07/01 14:19:56;;;;;;;6.7;1.9;;;;;;;21.29;79.62695;935.0818;;;;
2020/07/01 14:22:26;;;;;;;11.2;2.3;;;;;;;21.38;80.08984;934.9263;;;;